createdAt,value
2019-05-09T00:00:49.698Z,1.5
2019-05-09T00:02:49.772Z,1.5
2019-05-09T00:04:50.259Z,1.4
2019-05-09T00:06:49.423Z,1.4
2019-05-09T00:08:50.344Z,1.9
2019-05-09T00:10:50.367Z,1.9
2019-05-09T00:12:50.179Z,1.4
2019-05-09T00:14:50.184Z,1.3
2019-05-09T00:16:50.239Z,1.3
2019-05-09T00:18:50.331Z,1.9
2019-05-09T00:20:50.387Z,1.9
2019-05-09T00:22:50.368Z,1.6
2019-05-09T00:24:50.346Z,1.4
2019-05-09T00:26:49.497Z,1.7
2019-05-09T00:28:49.586Z,1.7
2019-05-09T00:30:49.518Z,1.6
2019-05-09T00:32:49.581Z,1.7
2019-05-09T00:34:49.900Z,1.4
2019-05-09T00:36:50.037Z,1.4
2019-05-09T00:38:50.017Z,1.5
2019-05-09T00:40:55.842Z,1.4
2019-05-09T00:42:50.152Z,1.4
2019-05-09T00:44:50.166Z,1.4
2019-05-09T00:46:50.395Z,2.0
2019-05-09T00:48:49.481Z,2.0
2019-05-09T00:50:50.404Z,1.3
2019-05-09T00:52:49.454Z,1.5
2019-05-09T00:54:50.411Z,1.5
2019-05-09T00:56:50.174Z,1.5
2019-05-09T00:58:50.229Z,1.5
2019-05-09T01:00:50.288Z,1.5
2019-05-09T01:02:50.351Z,1.4
2019-05-09T01:04:49.684Z,1.4
2019-05-09T01:06:49.846Z,1.7
2019-05-09T01:08:49.901Z,1.7
2019-05-09T01:10:50.004Z,3.1
2019-05-09T01:12:50.099Z,3.1
2019-05-09T01:14:50.307Z,1.6
2019-05-09T01:16:49.460Z,2.1
2019-05-09T01:18:49.590Z,2.1
2019-05-09T01:20:49.818Z,1.9
2019-05-09T01:22:49.964Z,2.0
2019-05-09T01:24:50.023Z,1.6
2019-05-09T01:26:50.296Z,1.6
2019-05-09T01:28:49.447Z,4.0
2019-05-09T01:30:49.592Z,1.7
2019-05-09T01:32:49.757Z,1.5
2019-05-09T01:34:50.166Z,2.1
2019-05-09T01:36:49.448Z,2.2
2019-05-09T01:38:49.461Z,2.2
2019-05-09T01:40:49.447Z,1.7
2019-05-09T01:42:49.545Z,2.4
2019-05-09T01:44:49.575Z,1.6
2019-05-09T01:46:49.756Z,3.2
2019-05-09T01:48:49.823Z,3.2
2019-05-09T01:50:49.928Z,1.9
2019-05-09T01:52:49.943Z,2.1
2019-05-09T01:54:49.974Z,1.6
2019-05-09T01:56:50.131Z,1.6
2019-05-09T01:58:50.143Z,1.5
2019-05-09T02:00:50.177Z,1.5
2019-05-09T02:02:50.213Z,1.8
2019-05-09T02:04:49.533Z,2.6
2019-05-09T02:06:49.732Z,2.6
2019-05-09T02:08:49.964Z,1.7
2019-05-09T02:10:49.971Z,1.7
2019-05-09T02:12:49.947Z,1.3
2019-05-09T02:14:50.006Z,1.6
2019-05-09T02:16:50.165Z,1.6
2019-05-09T02:18:50.239Z,1.6
2019-05-09T02:20:50.279Z,2.7
2019-05-09T02:22:50.272Z,2.7
2019-05-09T02:24:50.243Z,2.0
2019-05-09T02:26:49.531Z,2.1
2019-05-09T02:28:49.538Z,1.9
2019-05-09T02:30:49.652Z,2.0
2019-05-09T02:32:49.802Z,2.0
2019-05-09T02:34:50.252Z,2.3
2019-05-09T02:36:50.387Z,2.3
2019-05-09T02:38:49.494Z,1.9
2019-05-09T02:40:49.720Z,2.7
2019-05-09T02:42:49.780Z,2.0
2019-05-09T02:44:49.879Z,2.3
2019-05-09T02:46:50.025Z,2.3
2019-05-09T02:48:50.007Z,2.1
2019-05-09T02:50:50.120Z,2.1
2019-05-09T02:52:50.137Z,2.1
2019-05-09T02:54:50.363Z,2.6
2019-05-09T02:56:49.577Z,2.9
2019-05-09T02:58:49.534Z,2.4
2019-05-09T03:00:49.551Z,2.3
2019-05-09T03:02:49.674Z,2.0
2019-05-09T03:04:50.062Z,2.3
2019-05-09T03:06:50.175Z,2.3
2019-05-09T03:08:50.172Z,2.1
2019-05-09T03:10:50.203Z,1.8
2019-05-09T03:12:50.674Z,2.0
2019-05-09T03:14:49.789Z,2.0
2019-05-09T03:16:49.938Z,2.3
2019-05-09T03:18:49.868Z,2.0
2019-05-09T03:20:49.857Z,2.0
2019-05-09T03:22:49.696Z,1.8
2019-05-09T03:24:49.756Z,1.8
2019-05-09T03:26:50.013Z,2.0
2019-05-09T03:28:50.040Z,2.4
2019-05-09T03:30:50.385Z,1.6
2019-05-09T03:32:49.561Z,1.6
2019-05-09T03:34:49.961Z,1.7
2019-05-09T03:36:50.087Z,2.0
2019-05-09T03:38:50.175Z,1.7
2019-05-09T03:40:50.179Z,1.7
2019-05-09T03:42:50.140Z,1.7
2019-05-09T03:44:50.130Z,1.9
2019-05-09T03:46:50.362Z,1.6
2019-05-09T03:48:49.687Z,1.9
2019-05-09T03:50:49.764Z,1.9
2019-05-09T03:52:49.750Z,1.6
2019-05-09T03:54:49.882Z,3.3
2019-05-09T03:56:50.131Z,2.4
2019-05-09T03:58:50.121Z,2.0
2019-05-09T04:00:50.236Z,1.9
2019-05-09T04:02:50.296Z,1.9
2019-05-09T04:04:49.635Z,2.1
2019-05-09T04:06:49.782Z,2.1
2019-05-09T04:08:49.886Z,1.9
2019-05-09T04:10:50.138Z,3.1
2019-05-09T04:12:55.612Z,3.1
2019-05-09T04:14:49.614Z,3.1
2019-05-09T04:16:49.764Z,2.3
2019-05-09T04:18:49.780Z,2.7
2019-05-09T04:20:49.787Z,2.7
2019-05-09T04:22:49.823Z,2.3
2019-05-09T04:24:49.810Z,2.7
2019-05-09T04:26:50.379Z,2.7
2019-05-09T04:28:50.329Z,2.9
2019-05-09T04:30:50.315Z,2.8
2019-05-09T04:32:50.354Z,2.8
2019-05-09T04:34:49.713Z,2.8
2019-05-09T04:36:49.874Z,3.1
2019-05-09T04:38:49.874Z,2.7
2019-05-09T04:40:49.831Z,3.3
2019-05-09T04:42:49.856Z,3.3
2019-05-09T04:46:54.017Z,3.5
2019-05-09T04:48:53.980Z,3.7
2019-05-09T04:50:49.773Z,3.7
2019-05-09T04:52:49.822Z,3.4
2019-05-09T04:54:49.822Z,3.4
2019-05-09T04:56:50.022Z,3.3
2019-05-09T04:58:49.910Z,3.2
2019-05-09T05:00:49.928Z,3.2
2019-05-09T05:02:49.953Z,3.3
2019-05-09T05:04:50.233Z,3.3
2019-05-09T05:06:49.465Z,3.3
2019-05-09T05:08:49.553Z,3.3
2019-05-09T05:10:49.631Z,2.8
2019-05-09T05:12:49.595Z,3.0
2019-05-09T05:14:49.610Z,3.2
2019-05-09T05:16:52.846Z,3.2
2019-05-09T05:18:50.028Z,3.2
2019-05-09T05:20:50.067Z,3.1
2019-05-09T05:22:50.073Z,5.5
2019-05-09T05:24:50.112Z,3.4
2019-05-09T05:26:50.213Z,3.3
2019-05-09T05:28:50.317Z,3.3
2019-05-09T05:30:50.387Z,3.2
2019-05-09T05:32:49.461Z,3.2
2019-05-09T05:34:49.777Z,5.6
2019-05-09T05:36:49.597Z,4.1
2019-05-09T05:38:49.689Z,4.1
2019-05-09T05:40:49.961Z,9.4
2019-05-09T05:42:50.080Z,6.4
2019-05-09T05:44:50.135Z,6.4
2019-05-09T05:46:50.875Z,9.8
2019-05-09T05:48:50.059Z,9.8
2019-05-09T05:50:50.059Z,17.8
2019-05-09T05:52:50.143Z,17.4
2019-05-09T05:54:50.158Z,11.0
2019-05-09T05:56:50.339Z,11.0
2019-05-09T05:58:49.512Z,8.7
2019-05-09T06:00:49.525Z,3.2
2019-05-09T06:02:49.513Z,4.6
2019-05-09T06:04:50.075Z,14.1
2019-05-09T06:06:50.276Z,14.1
2019-05-09T06:08:50.338Z,3.5
2019-05-09T06:10:50.283Z,4.8
2019-05-09T06:12:50.349Z,5.6
2019-05-09T06:14:50.370Z,5.6
2019-05-09T06:16:49.592Z,3.6
2019-05-09T06:18:49.624Z,8.4
2019-05-09T06:20:49.555Z,3.6
2019-05-09T06:22:49.634Z,3.7
2019-05-09T06:24:49.649Z,5.1
2019-05-09T06:26:49.889Z,8.3
2019-05-09T06:28:49.825Z,8.3
2019-05-09T06:30:49.766Z,4.3
2019-05-09T06:32:49.822Z,4.3
2019-05-09T06:34:50.060Z,3.1
2019-05-09T06:36:50.350Z,3.1
2019-05-09T06:38:50.379Z,3.1
2019-05-09T06:40:49.499Z,5.1
2019-05-09T06:42:49.598Z,3.9
2019-05-09T06:44:49.689Z,2.8
2019-05-09T06:46:49.798Z,2.8
2019-05-09T06:48:49.813Z,2.8
2019-05-09T06:50:49.920Z,2.7
2019-05-09T06:52:49.917Z,2.7
2019-05-09T06:54:49.940Z,4.2
2019-05-09T06:56:50.063Z,4.2
2019-05-09T06:58:50.104Z,3.6
2019-05-09T07:00:50.071Z,6.6
2019-05-09T07:02:50.082Z,3.2
2019-05-09T07:04:50.385Z,4.8
2019-05-09T07:06:49.486Z,4.8
2019-05-09T07:08:49.467Z,2.5
2019-05-09T07:10:49.445Z,3.5
2019-05-09T07:12:49.523Z,2.6
2019-05-09T07:14:49.466Z,2.6
2019-05-09T07:16:49.637Z,3.8
2019-05-09T07:18:49.672Z,2.6
2019-05-09T07:20:49.756Z,2.8
2019-05-09T07:22:49.851Z,2.3
2019-05-09T07:24:49.943Z,2.3
2019-05-09T07:26:50.264Z,2.8
2019-05-09T07:28:50.433Z,3.1
2019-05-09T07:30:49.494Z,2.6
2019-05-09T07:32:49.565Z,2.6
2019-05-09T07:34:49.965Z,8.8
2019-05-09T07:36:50.018Z,2.5
2019-05-09T07:38:50.173Z,4.3
2019-05-09T07:40:50.174Z,1.7
2019-05-09T07:42:50.240Z,1.7
2019-05-09T07:44:52.382Z,6.3
2019-05-09T07:46:49.835Z,2.3
2019-05-09T07:48:49.844Z,2.0
2019-05-09T07:50:49.780Z,2.2
2019-05-09T07:52:49.751Z,4.4
2019-05-09T07:54:49.804Z,4.4
2019-05-09T07:56:50.007Z,3.7
2019-05-09T07:58:50.035Z,2.6
2019-05-09T08:00:49.986Z,3.9
2019-05-09T08:02:50.012Z,3.9
2019-05-09T08:04:49.450Z,3.4
2019-05-09T08:06:49.592Z,2.2
2019-05-09T08:08:49.794Z,3.8
2019-05-09T08:10:49.765Z,2.4
2019-05-09T08:12:49.808Z,2.4
2019-05-09T08:15:07.124Z,2.5
2019-05-09T08:16:49.965Z,2.0
2019-05-09T08:18:50.073Z,3.7
2019-05-09T08:20:50.091Z,3.7
2019-05-09T08:22:56.489Z,4.3
2019-05-09T08:24:50.082Z,4.7
2019-05-09T08:26:50.307Z,2.3
2019-05-09T08:28:50.399Z,4.7
2019-05-09T08:30:50.431Z,4.7
2019-05-09T08:32:49.494Z,2.7
2019-05-09T08:34:50.015Z,2.1
2019-05-09T08:36:50.112Z,3.7
2019-05-09T08:38:50.149Z,2.6
2019-05-09T08:40:50.103Z,2.6
2019-05-09T08:42:50.184Z,3.9
2019-05-09T08:44:50.116Z,3.8
2019-05-09T08:46:50.262Z,2.7
2019-05-09T08:48:50.229Z,3.5
2019-05-09T08:50:50.228Z,3.5
2019-05-09T08:52:50.236Z,4.3
2019-05-09T08:54:50.343Z,2.1
2019-05-09T08:56:50.426Z,2.3
2019-05-09T08:58:49.471Z,6.4
2019-05-09T09:00:49.540Z,6.4
2019-05-09T09:02:49.537Z,4.4
2019-05-09T09:04:49.886Z,5.8
2019-05-09T09:06:50.068Z,2.6
2019-05-09T09:08:50.136Z,2.6
2019-05-09T09:10:50.155Z,2.8
2019-05-09T09:12:50.160Z,2.4
2019-05-09T09:14:50.282Z,2.3
2019-05-09T09:16:49.485Z,2.3
2019-05-09T09:18:49.724Z,5.1
2019-05-09T09:20:49.838Z,5.2
2019-05-09T09:22:49.880Z,3.8
2019-05-09T09:24:49.894Z,4.7
2019-05-09T09:26:49.955Z,6.0
2019-05-09T09:28:49.943Z,6.0
2019-05-09T09:30:49.997Z,3.4
2019-05-09T09:32:50.014Z,3.4
2019-05-09T09:34:50.389Z,3.4
2019-05-09T09:36:49.575Z,6.2
2019-05-09T09:38:49.566Z,6.2
2019-05-09T09:40:49.568Z,3.8
2019-05-09T09:42:49.505Z,3.3
2019-05-09T09:44:49.627Z,5.3
2019-05-09T09:46:49.793Z,6.2
2019-05-09T09:48:49.772Z,6.2
2019-05-09T09:50:51.675Z,11.6
2019-05-09T09:52:49.953Z,8.7
2019-05-09T09:54:49.980Z,8.7
2019-05-09T09:56:50.083Z,5.3
2019-05-09T09:58:50.129Z,5.3
2019-05-09T10:00:50.144Z,6.1
2019-05-09T10:02:50.009Z,4.8
2019-05-09T10:04:50.375Z,5.1
2019-05-09T10:06:52.711Z,3.6
2019-05-09T10:08:50.403Z,3.6
2019-05-09T10:10:50.352Z,4.9
2019-05-09T10:12:49.527Z,3.3
2019-05-09T10:14:49.590Z,4.5
2019-05-09T10:16:49.716Z,5.1
2019-05-09T10:18:49.784Z,5.1
2019-05-09T10:20:49.797Z,5.1
2019-05-09T10:22:58.293Z,2.1
2019-05-09T10:24:50.339Z,5.2
2019-05-09T10:26:49.470Z,5.2
2019-05-09T10:28:49.495Z,2.0
2019-05-09T10:30:49.499Z,2.1
2019-05-09T10:32:49.534Z,3.0
2019-05-09T10:34:49.846Z,1.2
2019-05-09T10:36:49.859Z,1.2
2019-05-09T10:38:49.866Z,2.5
2019-05-09T10:40:53.072Z,2.8
2019-05-09T10:42:49.548Z,2.3
2019-05-09T10:44:49.623Z,3.9
2019-05-09T10:46:57.044Z,3.9
2019-05-09T10:48:49.444Z,10.1
2019-05-09T10:50:53.718Z,4.3
2019-05-09T10:52:49.877Z,10.6
2019-05-09T10:54:49.893Z,6.0
2019-05-09T10:56:50.054Z,6.0
2019-05-09T10:58:50.106Z,7.6
2019-05-09T11:00:50.068Z,11.5
2019-05-09T11:02:50.167Z,12.6
2019-05-09T11:04:49.500Z,12.6
2019-05-09T11:06:49.754Z,4.3
2019-05-09T11:08:49.783Z,4.6
2019-05-09T11:10:49.868Z,4.6
2019-05-09T11:12:50.016Z,8.7
2019-05-09T11:14:50.000Z,8.7
2019-05-09T11:17:05.610Z,7.0
2019-05-09T11:18:49.543Z,3.6
2019-05-09T11:20:49.542Z,3.8
2019-05-09T11:22:49.547Z,2.8
2019-05-09T11:24:51.021Z,2.8
2019-05-09T11:26:49.879Z,4.2
2019-05-09T11:28:49.978Z,6.9
2019-05-09T11:30:50.021Z,4.5
2019-05-09T11:32:50.033Z,3.3
2019-05-09T11:34:50.291Z,3.3
2019-05-09T11:36:49.936Z,2.4
2019-05-09T11:38:50.064Z,2.4
2019-05-09T11:40:50.215Z,5.8
2019-05-09T11:42:50.314Z,5.8
2019-05-09T11:44:50.016Z,1.6
2019-05-09T11:46:50.186Z,3.2
2019-05-09T11:48:50.118Z,3.4
2019-05-09T11:50:50.178Z,3.4
2019-05-09T11:52:50.170Z,4.5
2019-05-09T11:54:50.238Z,4.0
2019-05-09T11:56:50.304Z,3.1
2019-05-09T11:58:50.207Z,1.6
2019-05-09T12:00:50.240Z,5.4
2019-05-09T12:02:50.231Z,5.4
2019-05-09T12:04:49.657Z,1.9
2019-05-09T12:06:49.794Z,1.3
2019-05-09T12:08:49.761Z,1.3
2019-05-09T12:10:49.774Z,1.5
2019-05-09T12:12:49.726Z,1.5
2019-05-09T12:14:49.728Z,2.6
2019-05-09T12:16:49.852Z,3.3
2019-05-09T12:18:49.987Z,0.9
2019-05-09T12:20:50.004Z,3.3
2019-05-09T12:22:50.018Z,3.3
2019-05-09T12:24:53.653Z,2.4
2019-05-09T12:26:49.575Z,1.3
2019-05-09T12:28:49.654Z,1.4
2019-05-09T12:30:49.620Z,8.5
2019-05-09T12:32:49.635Z,8.5
2019-05-09T12:34:49.933Z,4.5
2019-05-09T12:36:50.284Z,2.8
2019-05-09T12:38:50.425Z,5.2
2019-05-09T12:40:49.507Z,5.2
2019-05-09T12:42:50.219Z,2.5
2019-05-09T12:44:49.775Z,2.4
2019-05-09T12:46:49.900Z,2.5
2019-05-09T12:48:49.884Z,2.5
2019-05-09T12:50:49.903Z,2.8
2019-05-09T12:52:49.909Z,2.8
2019-05-09T12:54:49.869Z,2.1
2019-05-09T12:56:49.989Z,2.4
2019-05-09T12:58:50.019Z,2.8
2019-05-09T13:00:51.917Z,2.5
2019-05-09T13:02:50.110Z,2.5
2019-05-09T13:04:49.514Z,2.4
2019-05-09T13:06:49.614Z,2.3
2019-05-09T13:08:49.616Z,2.4
2019-05-09T13:10:49.563Z,2.4
2019-05-09T13:12:49.577Z,4.3
2019-05-09T13:14:49.654Z,4.1
2019-05-09T13:16:53.189Z,2.4
2019-05-09T13:18:49.986Z,2.4
2019-05-09T13:20:49.919Z,4.0
2019-05-09T13:22:50.014Z,1.7
2019-05-09T13:24:50.086Z,11.3
2019-05-09T13:26:50.409Z,20.1
2019-05-09T13:28:50.432Z,3.3
2019-05-09T13:30:49.503Z,3.3
2019-05-09T13:32:49.535Z,6.1
2019-05-09T13:34:49.851Z,6.4
2019-05-09T13:36:50.036Z,6.4
2019-05-09T13:38:58.005Z,6.5
2019-05-09T13:40:53.422Z,8.8
2019-05-09T13:42:50.147Z,4.4
2019-05-09T13:44:50.223Z,5.8
2019-05-09T13:46:50.431Z,3.6
2019-05-09T13:49:05.686Z,3.6
2019-05-09T13:50:50.363Z,2.4
2019-05-09T13:52:50.419Z,3.6
2019-05-09T13:54:50.427Z,3.6
2019-05-09T13:56:55.066Z,2.6
2019-05-09T13:58:49.561Z,10.8
2019-05-09T14:00:58.608Z,4.2
2019-05-09T14:02:49.486Z,2.1
2019-05-09T14:04:50.043Z,2.1
2019-05-09T14:06:50.224Z,3.2
2019-05-09T14:08:50.253Z,3.2
2019-05-09T14:10:50.302Z,1.9
2019-05-09T14:13:05.225Z,4.8
2019-05-09T14:14:49.783Z,2.2
2019-05-09T14:16:49.861Z,2.2
2019-05-09T14:18:49.923Z,2.1
2019-05-09T14:20:50.209Z,1.4
2019-05-09T14:22:50.399Z,3.3
2019-05-09T14:24:50.451Z,3.3
2019-05-09T14:26:49.581Z,6.8
2019-05-09T14:28:49.574Z,6.8
2019-05-09T14:30:49.659Z,1.6
2019-05-09T14:32:50.100Z,1.8
2019-05-09T14:34:49.538Z,6.0
2019-05-09T14:36:49.806Z,6.0
2019-05-09T14:38:49.892Z,2.7
2019-05-09T14:40:49.902Z,4.7
2019-05-09T14:42:49.898Z,4.0
2019-05-09T14:44:49.867Z,4.0
2019-05-09T14:46:49.924Z,4.8
2019-05-09T14:48:50.013Z,3.0
2019-05-09T14:50:50.024Z,3.3
2019-05-09T14:52:50.466Z,3.3
2019-05-09T14:54:49.719Z,2.4
2019-05-09T14:56:49.880Z,2.4
2019-05-09T14:58:49.891Z,2.5
2019-05-09T15:00:50.003Z,2.8
2019-05-09T15:02:50.201Z,2.0
2019-05-09T15:04:50.403Z,2.4
2019-05-09T15:06:49.623Z,2.4
2019-05-09T15:08:49.603Z,2.6
2019-05-09T15:10:49.638Z,1.3
2019-05-09T15:12:49.772Z,3.0
2019-05-09T15:14:49.738Z,2.5
2019-05-09T15:16:49.869Z,2.5
2019-05-09T15:18:49.887Z,1.6
2019-05-09T15:20:49.960Z,1.6
2019-05-09T15:22:50.027Z,3.3
2019-05-09T15:24:50.039Z,5.6
2019-05-09T15:26:50.156Z,5.6
2019-05-09T15:28:50.123Z,2.6
2019-05-09T15:30:50.113Z,3.0
2019-05-09T15:32:51.909Z,4.1
2019-05-09T15:34:49.544Z,4.1
2019-05-09T15:36:49.716Z,4.7
2019-05-09T15:38:49.774Z,1.8
2019-05-09T15:40:49.734Z,4.9
2019-05-09T15:42:49.738Z,2.0
2019-05-09T15:44:49.779Z,2.0
2019-05-09T15:46:49.861Z,2.5
2019-05-09T15:48:49.841Z,3.0
2019-05-09T15:50:49.967Z,1.9
2019-05-09T15:52:50.017Z,1.9
2019-05-09T15:54:50.170Z,2.5
2019-05-09T15:56:50.381Z,2.5
2019-05-09T15:58:49.590Z,2.6
2019-05-09T16:00:49.591Z,5.4
2019-05-09T16:02:49.711Z,5.4
2019-05-09T16:04:50.124Z,5.5
2019-05-09T16:06:51.555Z,4.3
2019-05-09T16:08:49.762Z,4.3
2019-05-09T16:10:49.859Z,2.3
2019-05-09T16:12:49.890Z,2.3
2019-05-09T16:14:49.918Z,1.5
2019-05-09T16:16:50.026Z,1.5
2019-05-09T16:18:50.131Z,3.5
2019-05-09T16:20:50.213Z,4.6
2019-05-09T16:22:50.212Z,4.6
2019-05-09T16:24:50.229Z,1.4
2019-05-09T16:26:49.584Z,2.2
2019-05-09T16:28:49.748Z,5.9
2019-05-09T16:30:49.789Z,5.9
2019-05-09T16:32:49.811Z,2.9
2019-05-09T16:34:50.156Z,3.0
2019-05-09T16:36:50.170Z,2.3
2019-05-09T16:38:50.288Z,2.3
2019-05-09T16:40:50.330Z,1.8
2019-05-09T16:42:50.328Z,1.8
2019-05-09T16:44:50.275Z,1.6
2019-05-09T16:46:49.478Z,1.7
2019-05-09T16:48:49.517Z,1.7
2019-05-09T16:51:00.361Z,2.0
2019-05-09T16:52:49.638Z,2.0
2019-05-09T16:54:50.048Z,1.7
2019-05-09T16:56:50.320Z,2.0
2019-05-09T16:58:50.370Z,1.5
2019-05-09T17:00:50.399Z,1.5
2019-05-09T17:02:50.379Z,1.5
2019-05-09T17:04:49.829Z,2.5
2019-05-09T17:06:50.076Z,1.5
2019-05-09T17:08:50.043Z,1.5
2019-05-09T17:10:50.046Z,1.6
2019-05-09T17:12:50.078Z,2.4
2019-05-09T17:14:50.135Z,1.6
2019-05-09T17:16:52.725Z,2.0
2019-05-09T17:18:50.167Z,1.9
2019-05-09T17:20:50.168Z,1.9
2019-05-09T17:22:50.119Z,1.4
2019-05-09T17:24:50.268Z,1.6
2019-05-09T17:26:50.311Z,1.8
2019-05-09T17:28:50.291Z,1.8
2019-05-09T17:30:50.349Z,1.5
2019-05-09T17:32:50.224Z,1.5
2019-05-09T17:34:49.658Z,1.6
2019-05-09T17:36:49.784Z,2.0
2019-05-09T17:38:49.820Z,1.5
2019-05-09T17:40:49.830Z,1.5
2019-05-09T17:42:49.805Z,1.4
2019-05-09T17:44:49.761Z,1.6
2019-05-09T17:46:49.867Z,1.6
2019-05-09T17:48:49.895Z,2.3
2019-05-09T17:50:49.882Z,2.3
2019-05-09T17:52:49.961Z,1.2
2019-05-09T17:54:49.948Z,2.0
2019-05-09T17:56:50.226Z,2.4
2019-05-09T17:58:50.270Z,2.4
2019-05-09T18:00:50.243Z,1.5
2019-05-09T18:02:50.229Z,1.3
2019-05-09T18:04:49.592Z,1.7
2019-05-09T18:06:49.770Z,1.7
2019-05-09T18:08:49.751Z,1.8
2019-05-09T18:10:49.760Z,1.6
2019-05-09T18:12:49.775Z,2.0
2019-05-09T18:14:49.772Z,2.0
2019-05-09T18:16:49.882Z,1.8
2019-05-09T18:18:49.863Z,1.8
2019-05-09T18:20:49.864Z,1.7
2019-05-09T18:22:49.944Z,1.5
2019-05-09T18:24:49.904Z,3.1
2019-05-09T18:26:50.057Z,2.3
2019-05-09T18:28:50.083Z,2.3
2019-05-09T18:30:50.112Z,1.7
2019-05-09T18:32:50.190Z,1.6
2019-05-09T18:34:52.372Z,1.4
2019-05-09T18:36:49.798Z,2.0
2019-05-09T18:38:49.838Z,2.0
2019-05-09T18:40:49.873Z,2.0
2019-05-09T18:42:49.838Z,1.5
2019-05-09T18:44:49.831Z,1.7
2019-05-09T18:46:49.908Z,1.7
2019-05-09T18:48:49.921Z,1.7
2019-05-09T18:50:49.901Z,1.5
2019-05-09T18:52:49.906Z,2.0
2019-05-09T18:54:49.849Z,2.0
2019-05-09T18:56:50.124Z,1.4
2019-05-09T18:58:50.320Z,1.3
2019-05-09T19:00:50.327Z,1.3
2019-05-09T19:02:50.396Z,1.5
2019-05-09T19:04:50.049Z,2.1
2019-05-09T19:06:50.227Z,2.1
2019-05-09T19:08:50.218Z,1.4
2019-05-09T19:10:52.181Z,1.3
2019-05-09T19:12:49.733Z,1.3
2019-05-09T19:14:49.782Z,1.3
2019-05-09T19:16:50.039Z,1.2
2019-05-09T19:18:50.034Z,1.2
2019-05-09T19:20:50.099Z,1.2
2019-05-09T19:22:50.095Z,1.2
2019-05-09T19:24:50.166Z,1.1
2019-05-09T19:26:50.249Z,1.2
2019-05-09T19:28:50.326Z,1.1
2019-05-09T19:30:50.328Z,1.2
2019-05-09T19:32:50.337Z,1.2
2019-05-09T19:34:49.678Z,1.2
2019-05-09T19:36:49.852Z,1.4
2019-05-09T19:38:49.874Z,1.2
2019-05-09T19:40:49.864Z,1.3
2019-05-09T19:42:49.888Z,1.5
2019-05-09T19:44:49.941Z,1.5
2019-05-09T19:46:50.200Z,1.2
2019-05-09T19:48:50.275Z,1.3
2019-05-09T19:50:50.375Z,1.2
2019-05-09T19:52:50.426Z,1.2
2019-05-09T19:54:49.463Z,1.2
2019-05-09T19:56:49.555Z,1.2
2019-05-09T19:58:49.629Z,1.6
2019-05-09T20:00:49.639Z,1.6
2019-05-09T20:02:49.794Z,1.3
2019-05-09T20:04:50.036Z,1.3
2019-05-09T20:06:50.192Z,1.3
2019-05-09T20:08:50.191Z,1.5
2019-05-09T20:10:50.243Z,1.4
2019-05-09T20:12:50.291Z,1.5
2019-05-09T20:14:50.334Z,1.5
2019-05-09T20:16:49.548Z,1.3
2019-05-09T20:18:49.520Z,1.5
2019-05-09T20:20:49.662Z,1.4
2019-05-09T20:22:52.754Z,1.4
2019-05-09T20:24:49.481Z,1.7
2019-05-09T20:26:49.743Z,2.3
2019-05-09T20:28:49.808Z,2.6
2019-05-09T20:30:49.942Z,1.7
2019-05-09T20:32:50.023Z,1.7
2019-05-09T20:34:49.538Z,1.9
2019-05-09T20:36:49.823Z,1.5
2019-05-09T20:38:49.902Z,1.6
2019-05-09T20:40:49.990Z,1.7
2019-05-09T20:42:50.046Z,1.7
2019-05-09T20:44:50.141Z,1.6
2019-05-09T20:46:50.202Z,1.7
2019-05-09T20:48:50.319Z,1.7
2019-05-09T20:50:50.335Z,1.7
2019-05-09T20:52:49.536Z,1.7
2019-05-09T20:54:49.571Z,1.9
2019-05-09T20:56:49.919Z,1.9
2019-05-09T20:58:49.926Z,1.5
2019-05-09T21:00:49.933Z,1.8
2019-05-09T21:02:49.991Z,2.0
2019-05-09T21:04:49.443Z,1.9
2019-05-09T21:06:49.742Z,1.9
2019-05-09T21:08:49.674Z,1.8
2019-05-09T21:10:49.721Z,1.8
2019-05-09T21:12:49.667Z,1.9
2019-05-09T21:14:49.647Z,1.9
2019-05-09T21:16:49.743Z,1.8
2019-05-09T21:18:49.850Z,2.1
2019-05-09T21:20:49.878Z,2.1
2019-05-09T21:22:49.888Z,2.2
2019-05-09T21:24:49.868Z,2.0
2019-05-09T21:26:50.029Z,2.3
2019-05-09T21:28:50.093Z,1.7
2019-05-09T21:30:50.264Z,1.7
2019-05-09T21:32:50.337Z,1.9
2019-05-09T21:34:49.592Z,4.1
2019-05-09T21:36:49.801Z,2.5
2019-05-09T21:38:49.810Z,2.5
2019-05-09T21:40:49.876Z,1.8
2019-05-09T21:42:49.981Z,2.2
2019-05-09T21:44:50.070Z,2.2
2019-05-09T21:46:50.335Z,2.2
2019-05-09T21:48:50.377Z,2.0
2019-05-09T21:50:50.462Z,2.0
2019-05-09T21:52:49.531Z,2.2
2019-05-09T21:54:49.631Z,3.1
2019-05-09T21:56:49.917Z,2.0
2019-05-09T21:58:49.896Z,3.2
2019-05-09T22:00:49.951Z,3.2
2019-05-09T22:02:50.020Z,2.4
2019-05-09T22:04:50.423Z,2.5
2019-05-09T22:06:49.632Z,2.8
2019-05-09T22:08:49.602Z,2.8
2019-05-09T22:10:49.604Z,2.4
2019-05-09T22:12:49.532Z,2.5
2019-05-09T22:14:49.597Z,2.5
2019-05-09T22:16:49.796Z,2.5
2019-05-09T22:18:49.918Z,2.5
2019-05-09T22:20:49.923Z,2.6
2019-05-09T22:22:50.033Z,3.7
2019-05-09T22:24:50.119Z,2.8
2019-05-09T22:26:50.315Z,2.6
2019-05-09T22:28:50.310Z,2.6
2019-05-09T22:30:50.272Z,3.6
2019-05-09T22:32:50.393Z,3.1
2019-05-09T22:34:49.818Z,2.8
2019-05-09T22:36:49.932Z,2.8
2019-05-09T22:38:50.025Z,2.7
2019-05-09T22:40:50.044Z,2.9
2019-05-09T22:42:50.045Z,2.7
2019-05-09T22:44:50.091Z,2.7
2019-05-09T22:46:50.204Z,2.9
2019-05-09T22:48:50.292Z,2.9
2019-05-09T22:50:50.243Z,2.7
2019-05-09T22:52:50.305Z,2.7
2019-05-09T22:54:50.389Z,3.0
2019-05-09T22:56:49.651Z,3.0
2019-05-09T22:58:50.077Z,2.6
2019-05-09T23:00:50.167Z,3.0
2019-05-09T23:02:50.215Z,2.8
2019-05-09T23:04:49.616Z,2.7
2019-05-09T23:06:49.736Z,2.6
2019-05-09T23:08:49.740Z,2.6
2019-05-09T23:10:53.183Z,2.8
2019-05-09T23:12:49.641Z,3.2
2019-05-09T23:14:49.895Z,2.6
2019-05-09T23:16:50.538Z,2.6
2019-05-09T23:18:49.934Z,2.6
2019-05-09T23:20:49.925Z,2.8
2019-05-09T23:22:50.361Z,3.8
2019-05-09T23:24:49.447Z,2.8
2019-05-09T23:26:49.602Z,2.8
2019-05-09T23:28:49.664Z,3.3
2019-05-09T23:30:49.625Z,3.8
2019-05-09T23:32:49.657Z,3.1
2019-05-09T23:34:50.039Z,3.1
2019-05-09T23:36:50.145Z,3.0
2019-05-09T23:38:50.279Z,3.1
2019-05-09T23:40:50.258Z,3.0
2019-05-09T23:42:50.276Z,3.0
2019-05-09T23:44:50.358Z,3.4
2019-05-09T23:46:49.573Z,3.4
2019-05-09T23:48:49.592Z,2.8
2019-05-09T23:50:49.513Z,3.7
2019-05-09T23:52:49.528Z,3.9
2019-05-09T23:54:49.506Z,3.9
2019-05-09T23:56:49.735Z,3.7
2019-05-09T23:58:49.723Z,3.6
